sensor_id;sensor_type;location;lat;lon;timestamp;temperature;humidity
19646;DHT22;9971;52.446;13.452;2023-04-01T00:01:55;11.20;99.90
19646;DHT22;9971;52.446;13.452;2023-04-01T00:06:58;11.20;99.90
19646;DHT22;9971;52.446;13.452;2023-04-01T00:12:00;11.20;99.90
19646;DHT22;9971;52.446;13.452;2023-04-01T00:17:02;11.10;99.90
19646;DHT22;9971;52.446;13.452;2023-04-01T00:22:05;11.10;99.90
19646;DHT22;9971;52.446;13.452;2023-04-01T00:27:07;11.10;99.90
19646;DHT22;9971;52.446;13.452;2023-04-01T00:32:10;11.10;99.90
19646;DHT22;9971;52.446;13.452;2023-04-01T00:37:12;11.10;99.90
19646;DHT22;9971;52.446;13.452;2023-04-01T00:42:15;11.10;99.90
19646;DHT22;9971;52.446;13.452;2023-04-01T00:47:18;11.10;99.90
19646;DHT22;9971;52.446;13.452;2023-04-01T00:52:22;11.10;99.90
19646;DHT22;9971;52.446;13.452;2023-04-01T00:57:25;11.10;99.90
19646;DHT22;9971;52.446;13.452;2023-04-01T01:02:25;11.10;99.90
19646;DHT22;9971;52.446;13.452;2023-04-01T01:13:01;11.10;99.90
19646;DHT22;9971;52.446;13.452;2023-04-01T01:18:11;11.10;99.90
19646;DHT22;9971;52.446;13.452;2023-04-01T01:28:57;11.10;99.90
19646;DHT22;9971;52.446;13.452;2023-04-01T01:39:03;11.10;99.90
19646;DHT22;9971;52.446;13.452;2023-04-01T01:44:06;11.10;99.90
19646;DHT22;9971;52.446;13.452;2023-04-01T01:49:08;11.10;99.90
19646;DHT22;9971;52.446;13.452;2023-04-01T01:54:13;11.20;99.90
19646;DHT22;9971;52.446;13.452;2023-04-01T01:59:15;11.10;99.90
19646;DHT22;9971;52.446;13.452;2023-04-01T02:04:17;11.20;99.90
19646;DHT22;9971;52.446;13.452;2023-04-01T02:09:19;11.20;99.90
19646;DHT22;9971;52.446;13.452;2023-04-01T02:14:36;11.20;99.90
19646;DHT22;9971;52.446;13.452;2023-04-01T02:19:37;11.20;99.90
19646;DHT22;9971;52.446;13.452;2023-04-01T02:24:37;11.20;99.90
19646;DHT22;9971;52.446;13.452;2023-04-01T02:29:39;11.20;99.90
19646;DHT22;9971;52.446;13.452;2023-04-01T02:34:41;11.20;99.90
19646;DHT22;9971;52.446;13.452;2023-04-01T02:39:44;11.20;99.90
19646;DHT22;9971;52.446;13.452;2023-04-01T02:44:46;11.20;99.90
19646;DHT22;9971;52.446;13.452;2023-04-01T02:49:49;11.20;99.90
19646;DHT22;9971;52.446;13.452;2023-04-01T02:54:52;11.10;99.90
19646;DHT22;9971;52.446;13.452;2023-04-01T02:59:53;11.20;99.90
19646;DHT22;9971;52.446;13.452;2023-04-01T03:04:56;11.20;99.90
19646;DHT22;9971;52.446;13.452;2023-04-01T03:09:58;11.10;99.90
19646;DHT22;9971;52.446;13.452;2023-04-01T03:15:00;11.10;99.90
19646;DHT22;9971;52.446;13.452;2023-04-01T03:20:03;11.10;99.90
19646;DHT22;9971;52.446;13.452;2023-04-01T03:25:07;11.10;99.90
19646;DHT22;9971;52.446;13.452;2023-04-01T03:30:10;11.10;99.90
19646;DHT22;9971;52.446;13.452;2023-04-01T03:35:12;11.10;99.90
19646;DHT22;9971;52.446;13.452;2023-04-01T03:40:15;11.20;99.90
19646;DHT22;9971;52.446;13.452;2023-04-01T03:45:17;11.10;99.90
19646;DHT22;9971;52.446;13.452;2023-04-01T03:50:19;11.10;99.90
19646;DHT22;9971;52.446;13.452;2023-04-01T03:55:22;11.10;99.90
19646;DHT22;9971;52.446;13.452;2023-04-01T04:00:24;11.10;99.90
19646;DHT22;9971;52.446;13.452;2023-04-01T04:05:27;11.10;99.90
19646;DHT22;9971;52.446;13.452;2023-04-01T04:10:29;11.10;99.90
19646;DHT22;9971;52.446;13.452;2023-04-01T04:15:32;11.10;99.90
19646;DHT22;9971;52.446;13.452;2023-04-01T04:20:35;11.20;99.90
19646;DHT22;9971;52.446;13.452;2023-04-01T04:25:37;11.20;99.90
19646;DHT22;9971;52.446;13.452;2023-04-01T04:30:40;11.20;99.90
19646;DHT22;9971;52.446;13.452;2023-04-01T04:35:43;11.20;99.90
19646;DHT22;9971;52.446;13.452;2023-04-01T04:40:46;11.20;99.90
19646;DHT22;9971;52.446;13.452;2023-04-01T04:45:50;11.20;99.90
19646;DHT22;9971;52.446;13.452;2023-04-01T04:50:52;11.20;99.90
19646;DHT22;9971;52.446;13.452;2023-04-01T04:55:54;11.20;99.90
19646;DHT22;9971;52.446;13.452;2023-04-01T05:00:57;11.20;99.90
19646;DHT22;9971;52.446;13.452;2023-04-01T05:06:00;11.20;99.90
19646;DHT22;9971;52.446;13.452;2023-04-01T05:11:03;11.30;99.90
19646;DHT22;9971;52.446;13.452;2023-04-01T05:16:13;11.20;99.90
19646;DHT22;9971;52.446;13.452;2023-04-01T05:21:16;11.30;99.90
19646;DHT22;9971;52.446;13.452;2023-04-01T05:26:19;11.30;99.90
19646;DHT22;9971;52.446;13.452;2023-04-01T05:31:21;11.30;99.90
19646;DHT22;9971;52.446;13.452;2023-04-01T05:36:24;11.30;99.90
19646;DHT22;9971;52.446;13.452;2023-04-01T05:41:26;11.30;99.90
19646;DHT22;9971;52.446;13.452;2023-04-01T05:46:28;11.30;99.90
19646;DHT22;9971;52.446;13.452;2023-04-01T05:51:31;11.40;99.90
19646;DHT22;9971;52.446;13.452;2023-04-01T05:56:33;11.40;99.90
19646;DHT22;9971;52.446;13.452;2023-04-01T06:01:36;11.40;99.90
19646;DHT22;9971;52.446;13.452;2023-04-01T06:06:38;11.40;99.90
19646;DHT22;9971;52.446;13.452;2023-04-01T06:12:05;11.40;99.90
19646;DHT22;9971;52.446;13.452;2023-04-01T06:17:19;11.50;99.90
19646;DHT22;9971;52.446;13.452;2023-04-01T06:23:09;11.50;99.90
19646;DHT22;9971;52.446;13.452;2023-04-01T06:28:10;11.50;99.90
19646;DHT22;9971;52.446;13.452;2023-04-01T06:33:18;11.60;99.90
19646;DHT22;9971;52.446;13.452;2023-04-01T06:38:28;11.60;99.90
19646;DHT22;9971;52.446;13.452;2023-04-01T06:43:38;11.60;99.90
19646;DHT22;9971;52.446;13.452;2023-04-01T06:54:09;11.70;99.90
19646;DHT22;9971;52.446;13.452;2023-04-01T06:59:12;11.70;99.90
19646;DHT22;9971;52.446;13.452;2023-04-01T07:04:17;11.80;99.90
19646;DHT22;9971;52.446;13.452;2023-04-01T07:09:19;11.80;99.90
19646;DHT22;9971;52.446;13.452;2023-04-01T07:14:24;11.90;99.90
19646;DHT22;9971;52.446;13.452;2023-04-01T07:19:32;11.90;99.90
19646;DHT22;9971;52.446;13.452;2023-04-01T07:24:34;12.00;99.90
19646;DHT22;9971;52.446;13.452;2023-04-01T07:29:35;12.10;99.90
19646;DHT22;9971;52.446;13.452;2023-04-01T07:40:14;12.30;99.90
19646;DHT22;9971;52.446;13.452;2023-04-01T07:45:17;12.40;99.90
19646;DHT22;9971;52.446;13.452;2023-04-01T07:50:22;12.50;99.90
19646;DHT22;9971;52.446;13.452;2023-04-01T07:55:29;12.70;99.90
19646;DHT22;9971;52.446;13.452;2023-04-01T08:00:30;12.80;99.90
19646;DHT22;9971;52.446;13.452;2023-04-01T08:05:41;13.00;99.90
19646;DHT22;9971;52.446;13.452;2023-04-01T08:10:47;13.00;99.90
19646;DHT22;9971;52.446;13.452;2023-04-01T08:16:08;13.30;99.90
19646;DHT22;9971;52.446;13.452;2023-04-01T08:21:20;13.50;99.90
19646;DHT22;9971;52.446;13.452;2023-04-01T08:26:30;13.60;99.90
19646;DHT22;9971;52.446;13.452;2023-04-01T08:31:38;13.80;99.90
19646;DHT22;9971;52.446;13.452;2023-04-01T08:36:43;13.80;99.90
19646;DHT22;9971;52.446;13.452;2023-04-01T08:41:55;13.90;99.90
19646;DHT22;9971;52.446;13.452;2023-04-01T08:52:22;13.80;99.90
19646;DHT22;9971;52.446;13.452;2023-04-01T09:03:43;13.10;99.90
19646;DHT22;9971;52.446;13.452;2023-04-01T09:14:13;12.70;99.90
19646;DHT22;9971;52.446;13.452;2023-04-01T09:19:17;12.40;99.90
19646;DHT22;9971;52.446;13.452;2023-04-01T09:24:28;12.30;99.90
19646;DHT22;9971;52.446;13.452;2023-04-01T09:29:40;12.10;99.90
19646;DHT22;9971;52.446;13.452;2023-04-01T09:34:53;12.00;99.90
19646;DHT22;9971;52.446;13.452;2023-04-01T09:40:02;12.00;99.90
19646;DHT22;9971;52.446;13.452;2023-04-01T09:45:04;11.90;99.90
19646;DHT22;9971;52.446;13.452;2023-04-01T09:50:20;11.90;99.90
19646;DHT22;9971;52.446;13.452;2023-04-01T09:55:28;11.90;99.90
19646;DHT22;9971;52.446;13.452;2023-04-01T10:31:00;13.80;99.90
19646;DHT22;9971;52.446;13.452;2023-04-01T11:01:15;13.00;99.90
19646;DHT22;9971;52.446;13.452;2023-04-01T11:06:37;14.60;99.90
19646;DHT22;9971;52.446;13.452;2023-04-01T11:11:57;13.60;99.90
19646;DHT22;9971;52.446;13.452;2023-04-01T11:17:16;13.00;99.90
19646;DHT22;9971;52.446;13.452;2023-04-01T11:32:54;12.30;99.90
19646;DHT22;9971;52.446;13.452;2023-04-01T11:38:07;12.30;99.90
19646;DHT22;9971;52.446;13.452;2023-04-01T11:43:45;12.20;99.90
19646;DHT22;9971;52.446;13.452;2023-04-01T11:53:53;12.10;99.90
19646;DHT22;9971;52.446;13.452;2023-04-01T11:59:01;12.00;99.90
19646;DHT22;9971;52.446;13.452;2023-04-01T12:15:50;11.90;99.90
19646;DHT22;9971;52.446;13.452;2023-04-01T12:20:15;11.90;99.90
19646;DHT22;9971;52.446;13.452;2023-04-01T12:30:25;11.80;99.90
19646;DHT22;9971;52.446;13.452;2023-04-01T12:35:32;11.80;99.90
19646;DHT22;9971;52.446;13.452;2023-04-01T12:40:51;11.70;99.90
19646;DHT22;9971;52.446;13.452;2023-04-01T12:46:13;11.70;99.90
19646;DHT22;9971;52.446;13.452;2023-04-01T12:51:21;11.70;99.90
19646;DHT22;9971;52.446;13.452;2023-04-01T13:01:52;11.60;99.90
19646;DHT22;9971;52.446;13.452;2023-04-01T13:17:22;11.50;99.90
19646;DHT22;9971;52.446;13.452;2023-04-01T13:28:22;11.30;99.90
19646;DHT22;9971;52.446;13.452;2023-04-01T13:33:29;11.30;99.90
19646;DHT22;9971;52.446;13.452;2023-04-01T13:38:38;11.30;99.90
19646;DHT22;9971;52.446;13.452;2023-04-01T13:44:15;11.30;99.90
19646;DHT22;9971;52.446;13.452;2023-04-01T13:49:19;11.20;99.90
19646;DHT22;9971;52.446;13.452;2023-04-01T13:55:14;11.20;99.90
19646;DHT22;9971;52.446;13.452;2023-04-01T14:00:00;11.20;99.90
19646;DHT22;9971;52.446;13.452;2023-04-01T14:10:44;11.20;99.90
19646;DHT22;9971;52.446;13.452;2023-04-01T14:16:55;11.20;99.90
19646;DHT22;9971;52.446;13.452;2023-04-01T14:26:21;11.30;99.90
19646;DHT22;9971;52.446;13.452;2023-04-01T14:31:46;11.20;99.90
19646;DHT22;9971;52.446;13.452;2023-04-01T14:37:07;11.20;99.90
19646;DHT22;9971;52.446;13.452;2023-04-01T14:42:18;11.20;99.90
19646;DHT22;9971;52.446;13.452;2023-04-01T14:52:28;11.10;99.90
19646;DHT22;9971;52.446;13.452;2023-04-01T14:57:31;11.00;99.90
19646;DHT22;9971;52.446;13.452;2023-04-01T15:02:44;10.90;99.90
19646;DHT22;9971;52.446;13.452;2023-04-01T15:13:15;10.80;99.90
19646;DHT22;9971;52.446;13.452;2023-04-01T15:18:36;10.80;99.90
19646;DHT22;9971;52.446;13.452;2023-04-01T15:23:55;10.80;99.90
19646;DHT22;9971;52.446;13.452;2023-04-01T15:29:16;10.70;99.90
19646;DHT22;9971;52.446;13.452;2023-04-01T15:34:47;10.60;99.90
19646;DHT22;9971;52.446;13.452;2023-04-01T15:39:39;10.60;99.90
19646;DHT22;9971;52.446;13.452;2023-04-01T15:44:46;10.50;99.90
19646;DHT22;9971;52.446;13.452;2023-04-01T15:49:48;10.40;99.90
19646;DHT22;9971;52.446;13.452;2023-04-01T15:55:17;10.40;99.90
19646;DHT22;9971;52.446;13.452;2023-04-01T16:00:25;10.40;99.90
19646;DHT22;9971;52.446;13.452;2023-04-01T16:05:30;10.30;99.90
19646;DHT22;9971;52.446;13.452;2023-04-01T16:10:52;10.30;99.90
19646;DHT22;9971;52.446;13.452;2023-04-01T16:21:19;10.20;99.90
19646;DHT22;9971;52.446;13.452;2023-04-01T16:26:26;10.20;99.90
19646;DHT22;9971;52.446;13.452;2023-04-01T16:31:35;10.20;99.90
19646;DHT22;9971;52.446;13.452;2023-04-01T16:36:48;10.20;99.90
19646;DHT22;9971;52.446;13.452;2023-04-01T16:41:59;10.10;99.90
19646;DHT22;9971;52.446;13.452;2023-04-01T16:46:56;10.10;99.90
19646;DHT22;9971;52.446;13.452;2023-04-01T16:52:04;10.00;99.90
19646;DHT22;9971;52.446;13.452;2023-04-01T16:57:25;10.00;99.90
19646;DHT22;9971;52.446;13.452;2023-04-01T17:02:28;9.90;99.90
19646;DHT22;9971;52.446;13.452;2023-04-01T17:07:38;9.90;99.90
19646;DHT22;9971;52.446;13.452;2023-04-01T17:18:09;9.80;99.90
19646;DHT22;9971;52.446;13.452;2023-04-01T17:28:50;9.60;99.90
19646;DHT22;9971;52.446;13.452;2023-04-01T17:34:04;9.60;99.90
19646;DHT22;9971;52.446;13.452;2023-04-01T17:39:44;9.50;99.90
19646;DHT22;9971;52.446;13.452;2023-04-01T17:44:32;9.50;99.90
19646;DHT22;9971;52.446;13.452;2023-04-01T17:49:37;9.40;99.90
19646;DHT22;9971;52.446;13.452;2023-04-01T17:54:42;9.40;99.90
19646;DHT22;9971;52.446;13.452;2023-04-01T17:59:47;9.40;99.90
19646;DHT22;9971;52.446;13.452;2023-04-01T18:11:32;9.30;99.90
19646;DHT22;9971;52.446;13.452;2023-04-01T18:15:40;9.30;99.90
19646;DHT22;9971;52.446;13.452;2023-04-01T18:21:21;9.20;99.90
19646;DHT22;9971;52.446;13.452;2023-04-01T18:26:10;9.10;99.90
19646;DHT22;9971;52.446;13.452;2023-04-01T18:31:16;9.10;99.90
19646;DHT22;9971;52.446;13.452;2023-04-01T18:41:32;9.00;99.90
19646;DHT22;9971;52.446;13.452;2023-04-01T18:46:45;9.00;99.90
19646;DHT22;9971;52.446;13.452;2023-04-01T18:51:49;8.90;99.90
19646;DHT22;9971;52.446;13.452;2023-04-01T18:56:50;8.90;99.90
19646;DHT22;9971;52.446;13.452;2023-04-01T19:02:03;8.90;99.90
19646;DHT22;9971;52.446;13.452;2023-04-01T19:12:24;8.80;99.90
19646;DHT22;9971;52.446;13.452;2023-04-01T19:23:31;8.80;99.90
19646;DHT22;9971;52.446;13.452;2023-04-01T19:28:39;8.80;99.90
19646;DHT22;9971;52.446;13.452;2023-04-01T19:39:09;8.70;99.90
19646;DHT22;9971;52.446;13.452;2023-04-01T19:44:31;8.60;99.90
19646;DHT22;9971;52.446;13.452;2023-04-01T19:49:36;8.60;99.90
19646;DHT22;9971;52.446;13.452;2023-04-01T19:54:54;8.60;99.90
19646;DHT22;9971;52.446;13.452;2023-04-01T20:00:06;8.50;99.90
19646;DHT22;9971;52.446;13.452;2023-04-01T20:05:30;8.50;99.90
19646;DHT22;9971;52.446;13.452;2023-04-01T20:10:32;8.40;99.90
19646;DHT22;9971;52.446;13.452;2023-04-01T20:15:44;8.40;99.90
19646;DHT22;9971;52.446;13.452;2023-04-01T20:20:53;8.40;99.90
19646;DHT22;9971;52.446;13.452;2023-04-01T20:25:58;8.40;99.90
19646;DHT22;9971;52.446;13.452;2023-04-01T20:31:09;8.40;99.90
19646;DHT22;9971;52.446;13.452;2023-04-01T20:36:46;8.30;99.90
19646;DHT22;9971;52.446;13.452;2023-04-01T20:41:34;8.30;99.90
19646;DHT22;9971;52.446;13.452;2023-04-01T20:46:55;8.30;99.90
19646;DHT22;9971;52.446;13.452;2023-04-01T20:51:59;8.20;99.90
19646;DHT22;9971;52.446;13.452;2023-04-01T20:57:00;8.20;99.90
19646;DHT22;9971;52.446;13.452;2023-04-01T21:02:18;8.10;99.90
19646;DHT22;9971;52.446;13.452;2023-04-01T21:07:40;8.10;99.90
19646;DHT22;9971;52.446;13.452;2023-04-01T21:12:49;8.10;99.90
19646;DHT22;9971;52.446;13.452;2023-04-01T21:18:25;8.00;99.90
19646;DHT22;9971;52.446;13.452;2023-04-01T21:28:31;7.90;99.90
19646;DHT22;9971;52.446;13.452;2023-04-01T21:33:44;7.90;99.90
19646;DHT22;9971;52.446;13.452;2023-04-01T21:38:51;7.80;99.90
19646;DHT22;9971;52.446;13.452;2023-04-01T21:43:54;7.80;99.90
19646;DHT22;9971;52.446;13.452;2023-04-01T21:50:05;7.70;99.90
19646;DHT22;9971;52.446;13.452;2023-04-01T21:54:35;7.70;99.90
19646;DHT22;9971;52.446;13.452;2023-04-01T22:00:31;7.70;99.90
19646;DHT22;9971;52.446;13.452;2023-04-01T22:05:32;7.60;99.90
19646;DHT22;9971;52.446;13.452;2023-04-01T22:10:41;7.70;99.90
19646;DHT22;9971;52.446;13.452;2023-04-01T22:15:55;7.60;99.90
19646;DHT22;9971;52.446;13.452;2023-04-01T22:26:44;7.50;99.90
19646;DHT22;9971;52.446;13.452;2023-04-01T22:31:48;7.50;99.90
19646;DHT22;9971;52.446;13.452;2023-04-01T22:42:19;7.50;99.90
19646;DHT22;9971;52.446;13.452;2023-04-01T22:47:24;7.50;99.90
19646;DHT22;9971;52.446;13.452;2023-04-01T22:52:36;7.50;99.90
19646;DHT22;9971;52.446;13.452;2023-04-01T22:57:42;7.40;99.90
19646;DHT22;9971;52.446;13.452;2023-04-01T23:02:46;7.50;99.90
19646;DHT22;9971;52.446;13.452;2023-04-01T23:07:50;7.50;99.90
19646;DHT22;9971;52.446;13.452;2023-04-01T23:12:50;7.50;99.90
19646;DHT22;9971;52.446;13.452;2023-04-01T23:18:12;7.50;99.90
19646;DHT22;9971;52.446;13.452;2023-04-01T23:23:17;7.50;99.90
19646;DHT22;9971;52.446;13.452;2023-04-01T23:28:35;7.40;99.90
19646;DHT22;9971;52.446;13.452;2023-04-01T23:33:33;7.40;99.90
19646;DHT22;9971;52.446;13.452;2023-04-01T23:38:36;7.40;99.90
19646;DHT22;9971;52.446;13.452;2023-04-01T23:43:38;7.40;99.90
19646;DHT22;9971;52.446;13.452;2023-04-01T23:48:41;7.40;99.90
19646;DHT22;9971;52.446;13.452;2023-04-01T23:53:43;7.30;99.90
19646;DHT22;9971;52.446;13.452;2023-04-01T23:58:46;7.30;99.90
